Terminal Aerodrome Forecast
Issued by NWS Knoxville/Tri Cities, TN

Home | Current Version | Previous Version | Text Only | Print | Product List | Glossary On
Versions: 1 2 3 4 5 6 7 8 9 10 11 12 13 14 15 16 17 18 19 20 21 22 23 24 25 26 27 28 29 30 31 32 33 34 35 36 37
000
FTUS44 KMRX 081130
TAFTYS
TAF
KTYS 081130Z 0812/0912 36008KT P6SM BKN070
     FM081500 31011G20KT P6SM SCT050 BKN200
     FM090000 30010KT P6SM SCT250
     FM090700 33006KT P6SM SCT015=

USA.gov is the U.S. government's official web portal to all federal, state and local government web resources and services.